KELZ/ELZ METAR and TAF weather

Enter ICAO airport designator
Station Type Date Time Source
KELZ METAR 2021/09/25 02:56 UTC NOAA

KELZ 250256Z AUTO 25005KT 10SM CLR 12/08 A3009 RMK AO2 SLP190 T01170078 51004


Station Type Date Time Source
KELZ Decoded METAR 2021/09/25 02:56 UTC NOAA

WELLSVILLE MUNICIPAL AIRPORT, NY, United States (KELZ) 42-06N 077-60W 646M
Sep 24, 2021 - 10:56 PM EDT / 2021.09.25 0256 UTC
Wind: from the WSW (250 degrees) at 6 MPH (5 KT):0
Visibility: 10 mile(s):0
Sky conditions: clear
Temperature: 53.1 F (11.7 C)
Dew Point: 46.0 F (7.8 C)
Relative Humidity: 76%
Pressure (altimeter): 30.09 in. Hg (1018 hPa)
Pressure tendency: 0.01 inches (0.4 hPa) higher than three hours ago
ob: KELZ 250256Z AUTO 25005KT 10SM CLR 12/08 A3009 RMK AO2 SLP190 T01170078 51004
cycle: 3

Station Type Date Time Source
KELZ TAF UTC NOAA

Error!

Example: see airport list